Weather History for Newberry, MI

Change the Weather History Date:

Saturday, November 9, 2013

  Actual Average Record
Temperature  
Mean Temperature 36 °F -  
Max Temperature 41 °F 41 °F 69 °F (1999)
Min Temperature 32 °F 28 °F 10 °F (2003)
Degree Days  
Heating Degree Days 28    
Moisture  
Dew Point 34 °F    
Average Humidity 95    
Maximum Humidity 100    
Minimum Humidity 90    
Precipitation  
Precipitation 0.07 in - - ()
Sea Level Pressure  
Sea Level Pressure 29.70 in    
Wind  
Wind Speed 11 mph (South)    
Max Wind Speed 17 mph    
Max Gust Speed 26 mph    
Visibility 6 miles    
Events Rain , Snow    
Averages and records for this station are not official NWS values.
T = Trace of Precipitation, MM = Missing Value Source: NWS Daily Summary

Daily Weather History Graph

Daily Weather History Graph

Search for Another Location

Airport:

Trip Planner

Search our weather history database for the weather conditions in past years. The results will help you decide how hot, cold, wet, or windy it might be!

Date:

Astronomy

Nov. 09, 2013 Rise Set
Actual Time 7:34 AM EST 5:15 PM EST
Civil Twilight 7:02 AM EST 5:47 PM EST
Nautical Twilight 6:26 AM EST 6:23 PM EST
Astronomical Twilight 5:51 AM EST 6:59 PM EST
Moon 1:07 PM EST (11/9) 11:50 PM EST (11/9)
Length of Visible Light 10h 45m
Length of Day
9h 40m
Waxing Crescent, 44% of the Moon is Illuminated
Nov 9
Waxing Crescent
Nov 10
First Quarter
Nov 17
Full
Nov 25
Last Quarter
Dec 2
New

Hourly Weather History & Observations

Time (EST) Temp. Windchill Dew Point Humidity Pressure Visibility Wind Dir Wind Speed Gust Speed Precip Events Conditions
12:15 AM 34.7 °F 26.9 °F 32.5 °F 92% 30.01 in 5.0 mi South 10.4 mph - N/A Rain Light Rain
12:35 AM 34.0 °F 29.8 °F 32.2 °F 93% 30.00 in 10.0 mi SSE 4.6 mph - N/A   Light Drizzle
12:55 AM 34.0 °F 27.2 °F 32.2 °F 93% 29.99 in 10.0 mi SSE 8.1 mph - N/A Rain Rain
1:15 AM 34.0 °F 26.0 °F 32.0 °F 92% 29.98 in 5.0 mi South 10.4 mph 17.3 mph N/A   Overcast
1:35 AM 33.3 °F 25.7 °F 32.2 °F 96% 29.95 in 10.0 mi SE 9.2 mph - N/A   Overcast
1:54 AM 33.4 °F 24.8 °F 32.5 °F 96% 29.94 in 10.0 mi SE 11.5 mph 16.1 mph N/A   Overcast
2:15 AM 33.8 °F 25.8 °F 32.4 °F 94% 29.92 in 10.0 mi ESE 10.4 mph - N/A   Overcast
2:35 AM 33.4 °F 23.9 °F 32.0 °F 94% 29.90 in 10.0 mi ESE 13.8 mph - N/A   Overcast
2:54 AM 33.1 °F 25.5 °F 32.0 °F 96% 29.89 in 10.0 mi ESE 9.2 mph - N/A   Overcast
3:15 AM 33.1 °F 23.9 °F 31.5 °F 94% 29.87 in 10.0 mi ESE 12.7 mph - N/A   Overcast
3:35 AM 33.1 °F 23.9 °F 31.1 °F 92% 29.86 in 10.0 mi ESE 12.7 mph 17.3 mph N/A   Overcast
3:54 AM 32.9 °F 23.7 °F 31.5 °F 94% 29.85 in 2.5 mi ESE 12.7 mph - N/A Snow Light Snow
4:15 AM 32.4 °F 22.1 °F 31.8 °F 98% 29.83 in 1.5 mi ESE 15.0 mph 21.9 mph N/A Snow Light Snow
4:35 AM 32.0 °F 22.5 °F 32.0 °F 100% 29.81 in 1.2 mi ESE 12.7 mph 18.4 mph 0.01 in Snow Light Snow
4:55 AM 32.0 °F 23.0 °F 32.0 °F 100% 29.79 in 1.0 mi ESE 11.5 mph 18.4 mph 0.02 in Snow Snow
5:15 AM 32.0 °F 22.5 °F 32.0 °F 100% 29.78 in 1.2 mi ESE 12.7 mph 17.3 mph 0.01 in Snow Snow
5:35 AM 32.0 °F 23.0 °F 32.0 °F 100% 29.77 in 1.8 mi SE 11.5 mph 18.4 mph 0.02 in Snow Light Snow
5:55 AM 32.0 °F 22.5 °F 32.0 °F 100% 29.75 in 1.5 mi SE 12.7 mph - 0.03 in Snow Light Snow
6:15 AM 32.2 °F 22.3 °F 32.0 °F 99% 29.74 in 2.5 mi ESE 13.8 mph 18.4 mph N/A Snow Light Snow
6:35 AM 32.4 °F 23.0 °F 32.0 °F 99% 29.72 in 4.0 mi SE 12.7 mph 23.0 mph N/A Snow Light Snow
6:55 AM 32.4 °F 23.0 °F 32.0 °F 99% 29.71 in 3.0 mi ESE 12.7 mph 19.6 mph N/A Snow Light Snow
7:14 AM 32.2 °F 23.2 °F 32.0 °F 99% 29.71 in 3.0 mi SE 11.5 mph 18.4 mph N/A Snow Light Snow
7:35 AM 32.4 °F 22.5 °F 32.0 °F 99% 29.70 in 5.0 mi SE 13.8 mph 19.6 mph N/A Snow Light Snow
7:55 AM 32.5 °F 23.2 °F 32.0 °F 98% 29.69 in 4.0 mi SE 12.7 mph 19.6 mph N/A Snow Light Snow
8:14 AM 32.9 °F 24.1 °F 32.4 °F 98% 29.68 in 3.0 mi ESE 11.5 mph - N/A Snow Light Snow
8:35 AM 33.1 °F 24.4 °F 32.5 °F 98% 29.67 in 7.0 mi ESE 11.5 mph 16.1 mph N/A Snow Light Snow
8:55 AM 33.1 °F 24.4 °F 32.9 °F 99% 29.66 in 4.0 mi ESE 11.5 mph - N/A Snow Light Snow
9:14 AM 33.1 °F 23.9 °F 32.9 °F 99% 29.64 in 4.0 mi ESE 12.7 mph - N/A Snow Light Snow
9:35 AM 33.3 °F 25.7 °F 32.9 °F 99% 29.63 in 4.0 mi ESE 9.2 mph - N/A   Overcast
9:55 AM 33.4 °F 26.6 °F 33.1 °F 99% 29.62 in 4.0 mi ESE 8.1 mph - N/A Rain Rain
10:14 AM 33.8 °F 26.4 °F 33.3 °F 98% 29.60 in 4.0 mi ESE 9.2 mph - N/A Rain Light Rain
10:35 AM 34.0 °F 28.0 °F 33.8 °F 99% 29.60 in 2.5 mi ESE 6.9 mph - 0.01 in Rain Light Rain
10:55 AM 34.2 °F 28.2 °F 34.0 °F 99% 29.59 in 1.8 mi ESE 6.9 mph - 0.01 in Rain Light Rain
11:15 AM 34.9 °F 30.8 °F 34.7 °F 99% 29.58 in 2.0 mi SE 4.6 mph - N/A Rain Rain
11:35 AM 36.3 °F 33.7 °F 36.3 °F 100% 29.58 in 2.0 mi South 3.5 mph - N/A Rain Rain
11:54 AM 38.1 °F 32.9 °F 38.1 °F 100% 29.57 in 2.0 mi SSW 6.9 mph - N/A Rain Rain
12:15 PM 40.1 °F 33.6 °F 39.2 °F 97% 29.56 in 7.0 mi SW 10.4 mph - N/A   Light Drizzle
12:35 PM 41.0 °F 34.3 °F 39.6 °F 95% 29.56 in 5.0 mi SW 11.5 mph 16.1 mph N/A   Overcast
12:54 PM 41.0 °F 33.5 °F 39.2 °F 93% 29.56 in 5.0 mi SW 13.8 mph 19.6 mph N/A   Overcast
1:15 PM 40.6 °F 32.7 °F 39.2 °F 95% 29.56 in 4.0 mi WSW 15.0 mph 21.9 mph N/A Rain Light Rain
1:35 PM 40.5 °F 33.2 °F 38.7 °F 93% 29.56 in 7.0 mi WSW 12.7 mph 19.6 mph N/A Rain Light Rain
1:54 PM 40.5 °F 31.8 °F 38.7 °F 93% 29.56 in 7.0 mi WSW 17.3 mph 21.9 mph N/A   Overcast
2:15 PM 40.6 °F 33.4 °F 38.3 °F 91% 29.56 in 10.0 mi WSW 12.7 mph 20.7 mph N/A   Overcast
2:35 PM 40.1 °F 32.7 °F 37.6 °F 91% 29.57 in 10.0 mi West 12.7 mph 18.4 mph N/A   Overcast
2:55 PM 39.7 °F 32.7 °F 37.2 °F 91% 29.58 in 10.0 mi West 11.5 mph 17.3 mph N/A   Overcast
3:15 PM 39.2 °F 33.6 °F 37.4 °F 93% 29.59 in 5.0 mi WSW 8.1 mph 17.3 mph N/A   Overcast
3:35 PM 39.2 °F 32.5 °F 36.7 °F 91% 29.59 in 5.0 mi WSW 10.4 mph 18.4 mph N/A   Overcast
3:54 PM 38.8 °F 31.6 °F 36.9 °F 93% 29.59 in 5.0 mi WSW 11.5 mph 17.3 mph N/A   Overcast
4:15 PM 38.7 °F 31.8 °F 37.0 °F 94% 29.60 in 4.0 mi WSW 10.4 mph - N/A   Overcast
4:35 PM 38.5 °F 30.3 °F 36.5 °F 93% 29.61 in 5.0 mi WSW 13.8 mph 17.3 mph N/A Rain Light Rain
4:54 PM 38.5 °F 30.3 °F 35.8 °F 90% 29.62 in 10.0 mi WSW 13.8 mph 20.7 mph N/A   Overcast
5:15 PM 38.3 °F 29.7 °F 35.8 °F 91% 29.62 in 10.0 mi WSW 15.0 mph 19.6 mph N/A   Unknown
5:34 PM 37.6 °F 29.1 °F 35.6 °F 93% 29.63 in 7.0 mi WSW 13.8 mph 20.7 mph N/A Rain Light Rain
5:55 PM 37.4 °F 29.3 °F 35.2 °F 92% 29.64 in 7.0 mi WSW 12.7 mph 21.9 mph N/A Rain Light Rain
6:15 PM 37.0 °F 28.5 °F 35.2 °F 93% 29.64 in 10.0 mi WSW 13.8 mph 20.7 mph N/A   Overcast
6:35 PM 36.9 °F 27.5 °F 34.9 °F 93% 29.65 in 10.0 mi WSW 16.1 mph 20.7 mph N/A   Overcast
6:55 PM 36.7 °F 28.0 °F 34.7 °F 93% 29.66 in 10.0 mi WSW 13.8 mph 24.2 mph N/A   Overcast
7:14 PM 36.5 °F 28.2 °F 34.5 °F 93% 29.66 in 10.0 mi WSW 12.7 mph 19.6 mph N/A   Overcast
7:35 PM 36.5 °F 27.4 °F 34.2 °F 91% 29.66 in 10.0 mi WSW 15.0 mph 23.0 mph N/A   Overcast
7:55 PM 36.5 °F 26.7 °F 34.0 °F 91% 29.66 in 10.0 mi WSW 17.3 mph 24.2 mph N/A   Overcast
8:14 PM 36.5 °F 27.4 °F 34.0 °F 91% 29.66 in 10.0 mi WSW 15.0 mph 26.5 mph N/A   Overcast
8:35 PM 36.1 °F 26.5 °F 34.0 °F 92% 29.66 in 7.0 mi WSW 16.1 mph 21.9 mph N/A   Overcast
8:55 PM 36.1 °F 26.5 °F 34.0 °F 92% 29.66 in 7.0 mi WSW 16.1 mph 23.0 mph N/A   Overcast
9:15 PM 36.0 °F 26.3 °F 33.8 °F 92% 29.66 in 10.0 mi WSW 16.1 mph 23.0 mph N/A   Overcast
9:35 PM 36.0 °F 26.3 °F 34.0 °F 93% 29.66 in 7.0 mi WSW 16.1 mph 23.0 mph N/A Rain Light Rain
9:54 PM 36.0 °F 26.7 °F 34.2 °F 93% 29.67 in 5.0 mi WSW 15.0 mph 23.0 mph N/A Rain Light Rain
10:15 PM 35.8 °F 26.5 °F 34.3 °F 94% 29.67 in 5.0 mi WSW 15.0 mph 23.0 mph N/A Rain Light Rain
10:35 PM 35.8 °F 26.9 °F 34.3 °F 94% 29.67 in 7.0 mi WSW 13.8 mph 21.9 mph N/A Rain Light Rain
10:55 PM 35.6 °F 26.2 °F 34.5 °F 96% 29.68 in 5.0 mi WSW 15.0 mph 21.9 mph N/A Rain Light Rain
11:15 PM 35.8 °F 26.9 °F 34.9 °F 97% 29.69 in 5.0 mi West 13.8 mph 20.7 mph N/A Rain Light Rain
11:34 PM 36.3 °F 27.5 °F 35.2 °F 96% 29.69 in 5.0 mi West 13.8 mph 19.6 mph 0.01 in Rain Light Rain
11:55 PM 36.5 °F 28.7 °F 35.6 °F 97% 29.70 in 7.0 mi West 11.5 mph 20.7 mph 0.01 in Rain Light Rain